sensor_id;sensor_type;location;lat;lon;timestamp;P1;durP1;ratioP1;P2;durP2;ratioP2
19605;SDS011;9950;50.168;8.210;2023-05-19T00:01:26;6.80;;;3.83;;
19605;SDS011;9950;50.168;8.210;2023-05-19T00:03:54;4.35;;;3.58;;
19605;SDS011;9950;50.168;8.210;2023-05-19T00:06:25;5.32;;;3.85;;
19605;SDS011;9950;50.168;8.210;2023-05-19T00:08:54;6.95;;;3.67;;
19605;SDS011;9950;50.168;8.210;2023-05-19T00:11:22;6.35;;;4.00;;
19605;SDS011;9950;50.168;8.210;2023-05-19T00:13:50;5.72;;;3.80;;
19605;SDS011;9950;50.168;8.210;2023-05-19T00:16:19;5.32;;;3.97;;
19605;SDS011;9950;50.168;8.210;2023-05-19T00:18:47;5.05;;;3.65;;
19605;SDS011;9950;50.168;8.210;2023-05-19T00:21:14;5.35;;;3.78;;
19605;SDS011;9950;50.168;8.210;2023-05-19T00:23:43;6.38;;;4.88;;
19605;SDS011;9950;50.168;8.210;2023-05-19T00:26:10;5.93;;;3.55;;
19605;SDS011;9950;50.168;8.210;2023-05-19T00:28:37;9.57;;;4.47;;
19605;SDS011;9950;50.168;8.210;2023-05-19T00:31:04;7.88;;;4.22;;
19605;SDS011;9950;50.168;8.210;2023-05-19T00:33:32;6.82;;;4.47;;
19605;SDS011;9950;50.168;8.210;2023-05-19T00:35:59;5.68;;;4.10;;
19605;SDS011;9950;50.168;8.210;2023-05-19T00:38:27;6.72;;;4.40;;
19605;SDS011;9950;50.168;8.210;2023-05-19T00:40:56;7.68;;;5.03;;
19605;SDS011;9950;50.168;8.210;2023-05-19T00:43:23;10.70;;;4.90;;
19605;SDS011;9950;50.168;8.210;2023-05-19T00:45:50;6.95;;;4.60;;
19605;SDS011;9950;50.168;8.210;2023-05-19T00:48:17;6.45;;;4.45;;
19605;SDS011;9950;50.168;8.210;2023-05-19T00:50:44;5.35;;;4.13;;
19605;SDS011;9950;50.168;8.210;2023-05-19T00:53:12;7.38;;;4.10;;
19605;SDS011;9950;50.168;8.210;2023-05-19T00:55:40;6.60;;;4.40;;
19605;SDS011;9950;50.168;8.210;2023-05-19T00:58:09;6.65;;;4.13;;
19605;SDS011;9950;50.168;8.210;2023-05-19T01:00:37;5.80;;;4.65;;
19605;SDS011;9950;50.168;8.210;2023-05-19T01:03:04;6.43;;;4.38;;
19605;SDS011;9950;50.168;8.210;2023-05-19T01:05:35;5.70;;;4.35;;
19605;SDS011;9950;50.168;8.210;2023-05-19T01:08:02;7.32;;;4.43;;
19605;SDS011;9950;50.168;8.210;2023-05-19T01:10:29;6.60;;;4.95;;
19605;SDS011;9950;50.168;8.210;2023-05-19T01:12:57;7.65;;;4.75;;
19605;SDS011;9950;50.168;8.210;2023-05-19T01:15:25;8.55;;;5.07;;
19605;SDS011;9950;50.168;8.210;2023-05-19T01:17:54;6.75;;;4.28;;
19605;SDS011;9950;50.168;8.210;2023-05-19T01:20:26;7.00;;;4.35;;
19605;SDS011;9950;50.168;8.210;2023-05-19T01:23:03;7.93;;;4.95;;
19605;SDS011;9950;50.168;8.210;2023-05-19T01:25:48;8.73;;;4.88;;
19605;SDS011;9950;50.168;8.210;2023-05-19T01:31:03;9.45;;;4.45;;
19605;SDS011;9950;50.168;8.210;2023-05-19T01:33:32;5.43;;;4.45;;
19605;SDS011;9950;50.168;8.210;2023-05-19T01:35:59;8.35;;;4.80;;
19605;SDS011;9950;50.168;8.210;2023-05-19T01:38:28;11.85;;;4.70;;
19605;SDS011;9950;50.168;8.210;2023-05-19T01:40:56;7.68;;;4.60;;
19605;SDS011;9950;50.168;8.210;2023-05-19T01:43:24;11.35;;;4.53;;
19605;SDS011;9950;50.168;8.210;2023-05-19T01:45:52;8.30;;;5.00;;
19605;SDS011;9950;50.168;8.210;2023-05-19T01:48:20;9.32;;;6.22;;
19605;SDS011;9950;50.168;8.210;2023-05-19T01:50:48;9.85;;;5.05;;
19605;SDS011;9950;50.168;8.210;2023-05-19T01:53:16;7.63;;;4.80;;
19605;SDS011;9950;50.168;8.210;2023-05-19T01:55:44;8.27;;;4.68;;
19605;SDS011;9950;50.168;8.210;2023-05-19T01:58:14;7.43;;;4.57;;
19605;SDS011;9950;50.168;8.210;2023-05-19T02:00:47;9.70;;;5.40;;
19605;SDS011;9950;50.168;8.210;2023-05-19T02:03:24;7.13;;;4.50;;
19605;SDS011;9950;50.168;8.210;2023-05-19T02:05:54;6.32;;;4.75;;
19605;SDS011;9950;50.168;8.210;2023-05-19T02:08:26;8.32;;;5.10;;
19605;SDS011;9950;50.168;8.210;2023-05-19T02:10:54;7.60;;;4.97;;
19605;SDS011;9950;50.168;8.210;2023-05-19T02:13:24;6.25;;;5.00;;
19605;SDS011;9950;50.168;8.210;2023-05-19T02:15:53;7.18;;;5.07;;
19605;SDS011;9950;50.168;8.210;2023-05-19T02:18:23;7.63;;;4.90;;
19605;SDS011;9950;50.168;8.210;2023-05-19T02:20:53;8.05;;;4.88;;
19605;SDS011;9950;50.168;8.210;2023-05-19T02:23:21;7.85;;;4.32;;
19605;SDS011;9950;50.168;8.210;2023-05-19T02:25:48;6.20;;;4.28;;
19605;SDS011;9950;50.168;8.210;2023-05-19T02:28:15;6.32;;;4.68;;
19605;SDS011;9950;50.168;8.210;2023-05-19T02:30:42;6.65;;;3.90;;
19605;SDS011;9950;50.168;8.210;2023-05-19T02:33:09;5.68;;;3.90;;
19605;SDS011;9950;50.168;8.210;2023-05-19T02:35:38;8.55;;;3.90;;
19605;SDS011;9950;50.168;8.210;2023-05-19T02:38:05;7.65;;;4.05;;
19605;SDS011;9950;50.168;8.210;2023-05-19T02:40:33;6.50;;;4.00;;
19605;SDS011;9950;50.168;8.210;2023-05-19T02:43:00;7.50;;;4.60;;
19605;SDS011;9950;50.168;8.210;2023-05-19T02:45:27;6.88;;;4.38;;
19605;SDS011;9950;50.168;8.210;2023-05-19T02:47:54;6.35;;;4.35;;
19605;SDS011;9950;50.168;8.210;2023-05-19T02:50:21;9.75;;;5.10;;
19605;SDS011;9950;50.168;8.210;2023-05-19T02:52:50;8.88;;;4.63;;
19605;SDS011;9950;50.168;8.210;2023-05-19T02:55:17;8.48;;;5.03;;
19605;SDS011;9950;50.168;8.210;2023-05-19T02:57:45;5.57;;;4.68;;
19605;SDS011;9950;50.168;8.210;2023-05-19T03:00:12;6.45;;;4.80;;
19605;SDS011;9950;50.168;8.210;2023-05-19T03:02:40;11.57;;;4.35;;
19605;SDS011;9950;50.168;8.210;2023-05-19T03:05:08;8.00;;;4.40;;
19605;SDS011;9950;50.168;8.210;2023-05-19T03:07:35;8.18;;;4.28;;
19605;SDS011;9950;50.168;8.210;2023-05-19T03:10:04;5.43;;;4.85;;
19605;SDS011;9950;50.168;8.210;2023-05-19T03:12:32;6.90;;;4.50;;
19605;SDS011;9950;50.168;8.210;2023-05-19T03:14:59;6.97;;;4.60;;
19605;SDS011;9950;50.168;8.210;2023-05-19T03:17:26;8.00;;;4.72;;
19605;SDS011;9950;50.168;8.210;2023-05-19T03:19:57;8.98;;;4.85;;
19605;SDS011;9950;50.168;8.210;2023-05-19T03:22:25;8.93;;;4.63;;
19605;SDS011;9950;50.168;8.210;2023-05-19T03:24:52;5.18;;;4.20;;
19605;SDS011;9950;50.168;8.210;2023-05-19T03:27:20;6.45;;;4.05;;
19605;SDS011;9950;50.168;8.210;2023-05-19T03:29:47;8.73;;;4.22;;
19605;SDS011;9950;50.168;8.210;2023-05-19T03:32:14;5.82;;;4.10;;
19605;SDS011;9950;50.168;8.210;2023-05-19T03:34:42;8.32;;;4.70;;
19605;SDS011;9950;50.168;8.210;2023-05-19T03:37:09;8.10;;;4.75;;
19605;SDS011;9950;50.168;8.210;2023-05-19T03:39:36;8.30;;;4.30;;
19605;SDS011;9950;50.168;8.210;2023-05-19T03:42:04;5.97;;;4.28;;
19605;SDS011;9950;50.168;8.210;2023-05-19T03:44:32;6.70;;;4.13;;
19605;SDS011;9950;50.168;8.210;2023-05-19T03:47:00;6.68;;;4.53;;
19605;SDS011;9950;50.168;8.210;2023-05-19T03:49:27;6.57;;;4.10;;
19605;SDS011;9950;50.168;8.210;2023-05-19T03:51:54;5.95;;;4.07;;
19605;SDS011;9950;50.168;8.210;2023-05-19T03:54:22;4.78;;;4.28;;
19605;SDS011;9950;50.168;8.210;2023-05-19T03:56:49;8.98;;;4.32;;
19605;SDS011;9950;50.168;8.210;2023-05-19T03:59:16;6.78;;;4.30;;
19605;SDS011;9950;50.168;8.210;2023-05-19T04:01:45;9.40;;;5.30;;
19605;SDS011;9950;50.168;8.210;2023-05-19T04:04:12;10.57;;;4.72;;
19605;SDS011;9950;50.168;8.210;2023-05-19T04:06:39;7.28;;;4.45;;
19605;SDS011;9950;50.168;8.210;2023-05-19T04:09:10;12.27;;;4.55;;
19605;SDS011;9950;50.168;8.210;2023-05-19T04:11:38;5.15;;;4.13;;
19605;SDS011;9950;50.168;8.210;2023-05-19T04:14:05;5.70;;;4.03;;
19605;SDS011;9950;50.168;8.210;2023-05-19T04:16:32;5.57;;;4.15;;
19605;SDS011;9950;50.168;8.210;2023-05-19T04:19:01;8.60;;;4.22;;
19605;SDS011;9950;50.168;8.210;2023-05-19T04:21:28;5.28;;;4.28;;
19605;SDS011;9950;50.168;8.210;2023-05-19T04:23:55;6.35;;;4.10;;
19605;SDS011;9950;50.168;8.210;2023-05-19T04:26:24;7.57;;;4.45;;
19605;SDS011;9950;50.168;8.210;2023-05-19T04:28:51;7.95;;;4.50;;
19605;SDS011;9950;50.168;8.210;2023-05-19T04:31:20;6.80;;;4.47;;
19605;SDS011;9950;50.168;8.210;2023-05-19T04:33:48;6.93;;;4.90;;
19605;SDS011;9950;50.168;8.210;2023-05-19T04:36:18;6.25;;;4.50;;
19605;SDS011;9950;50.168;8.210;2023-05-19T04:38:46;6.50;;;4.85;;
19605;SDS011;9950;50.168;8.210;2023-05-19T04:41:13;8.82;;;5.07;;
19605;SDS011;9950;50.168;8.210;2023-05-19T04:43:41;7.68;;;5.20;;
19605;SDS011;9950;50.168;8.210;2023-05-19T04:46:08;8.35;;;5.68;;
19605;SDS011;9950;50.168;8.210;2023-05-19T04:48:36;5.47;;;4.68;;
19605;SDS011;9950;50.168;8.210;2023-05-19T04:51:04;8.95;;;5.30;;
19605;SDS011;9950;50.168;8.210;2023-05-19T04:53:32;6.60;;;5.18;;
19605;SDS011;9950;50.168;8.210;2023-05-19T04:56:00;6.93;;;4.90;;
19605;SDS011;9950;50.168;8.210;2023-05-19T04:58:27;8.65;;;5.43;;
19605;SDS011;9950;50.168;8.210;2023-05-19T05:00:55;7.43;;;5.10;;
19605;SDS011;9950;50.168;8.210;2023-05-19T05:03:22;10.77;;;6.40;;
19605;SDS011;9950;50.168;8.210;2023-05-19T05:05:51;11.70;;;5.00;;
19605;SDS011;9950;50.168;8.210;2023-05-19T05:08:18;7.75;;;5.28;;
19605;SDS011;9950;50.168;8.210;2023-05-19T05:10:49;7.22;;;5.10;;
19605;SDS011;9950;50.168;8.210;2023-05-19T05:13:16;10.15;;;4.80;;
19605;SDS011;9950;50.168;8.210;2023-05-19T05:15:44;8.30;;;4.70;;
19605;SDS011;9950;50.168;8.210;2023-05-19T05:18:11;8.18;;;4.60;;
19605;SDS011;9950;50.168;8.210;2023-05-19T05:20:39;8.18;;;4.57;;
19605;SDS011;9950;50.168;8.210;2023-05-19T05:23:07;8.70;;;4.63;;
19605;SDS011;9950;50.168;8.210;2023-05-19T05:25:34;6.45;;;4.82;;
19605;SDS011;9950;50.168;8.210;2023-05-19T05:28:03;7.78;;;4.90;;
19605;SDS011;9950;50.168;8.210;2023-05-19T05:30:32;8.32;;;4.40;;
19605;SDS011;9950;50.168;8.210;2023-05-19T05:32:59;7.60;;;5.28;;
19605;SDS011;9950;50.168;8.210;2023-05-19T05:35:27;7.20;;;4.45;;
19605;SDS011;9950;50.168;8.210;2023-05-19T05:37:54;6.35;;;4.50;;
19605;SDS011;9950;50.168;8.210;2023-05-19T05:40:21;8.02;;;4.78;;
19605;SDS011;9950;50.168;8.210;2023-05-19T05:42:49;6.53;;;4.63;;
19605;SDS011;9950;50.168;8.210;2023-05-19T05:45:17;6.35;;;4.68;;
19605;SDS011;9950;50.168;8.210;2023-05-19T05:47:45;11.18;;;5.05;;
19605;SDS011;9950;50.168;8.210;2023-05-19T05:50:12;10.25;;;4.28;;
19605;SDS011;9950;50.168;8.210;2023-05-19T05:52:40;6.97;;;5.00;;
19605;SDS011;9950;50.168;8.210;2023-05-19T05:55:08;6.10;;;4.40;;
19605;SDS011;9950;50.168;8.210;2023-05-19T05:57:35;11.75;;;4.57;;
19605;SDS011;9950;50.168;8.210;2023-05-19T06:00:03;8.27;;;3.67;;
19605;SDS011;9950;50.168;8.210;2023-05-19T06:02:32;8.20;;;4.13;;
19605;SDS011;9950;50.168;8.210;2023-05-19T06:05:00;7.97;;;4.00;;
19605;SDS011;9950;50.168;8.210;2023-05-19T06:07:27;6.97;;;4.68;;
19605;SDS011;9950;50.168;8.210;2023-05-19T06:09:55;8.88;;;4.20;;
19605;SDS011;9950;50.168;8.210;2023-05-19T06:12:22;7.57;;;4.20;;
19605;SDS011;9950;50.168;8.210;2023-05-19T06:14:51;6.60;;;4.03;;
19605;SDS011;9950;50.168;8.210;2023-05-19T06:17:18;10.07;;;4.10;;
19605;SDS011;9950;50.168;8.210;2023-05-19T06:19:46;7.22;;;4.20;;
19605;SDS011;9950;50.168;8.210;2023-05-19T06:22:13;8.65;;;4.07;;
19605;SDS011;9950;50.168;8.210;2023-05-19T06:24:41;5.35;;;3.70;;
19605;SDS011;9950;50.168;8.210;2023-05-19T06:27:08;9.05;;;4.75;;
19605;SDS011;9950;50.168;8.210;2023-05-19T06:29:35;7.65;;;4.28;;
19605;SDS011;9950;50.168;8.210;2023-05-19T06:32:02;6.60;;;4.25;;
19605;SDS011;9950;50.168;8.210;2023-05-19T06:34:29;8.60;;;4.75;;
19605;SDS011;9950;50.168;8.210;2023-05-19T06:36:58;6.50;;;4.28;;
19605;SDS011;9950;50.168;8.210;2023-05-19T06:39:26;8.15;;;4.20;;
19605;SDS011;9950;50.168;8.210;2023-05-19T06:41:53;5.20;;;4.30;;
19605;SDS011;9950;50.168;8.210;2023-05-19T06:44:21;8.25;;;4.13;;
19605;SDS011;9950;50.168;8.210;2023-05-19T06:46:48;21.42;;;5.60;;
19605;SDS011;9950;50.168;8.210;2023-05-19T06:49:15;8.50;;;3.58;;
19605;SDS011;9950;50.168;8.210;2023-05-19T06:51:42;7.80;;;3.70;;
19605;SDS011;9950;50.168;8.210;2023-05-19T06:54:11;7.10;;;3.30;;
19605;SDS011;9950;50.168;8.210;2023-05-19T06:56:40;5.78;;;2.63;;
19605;SDS011;9950;50.168;8.210;2023-05-19T06:59:07;8.13;;;2.35;;
19605;SDS011;9950;50.168;8.210;2023-05-19T07:01:34;6.07;;;2.30;;
19605;SDS011;9950;50.168;8.210;2023-05-19T07:04:01;5.10;;;2.78;;
19605;SDS011;9950;50.168;8.210;2023-05-19T07:06:29;6.38;;;1.92;;
19605;SDS011;9950;50.168;8.210;2023-05-19T07:08:56;3.58;;;1.85;;
19605;SDS011;9950;50.168;8.210;2023-05-19T07:11:24;8.20;;;2.08;;
19605;SDS011;9950;50.168;8.210;2023-05-19T07:13:52;3.50;;;1.80;;
19605;SDS011;9950;50.168;8.210;2023-05-19T07:16:19;7.78;;;2.25;;
19605;SDS011;9950;50.168;8.210;2023-05-19T07:18:46;3.70;;;1.83;;
19605;SDS011;9950;50.168;8.210;2023-05-19T07:21:13;5.25;;;2.15;;
19605;SDS011;9950;50.168;8.210;2023-05-19T07:23:40;8.80;;;2.10;;
19605;SDS011;9950;50.168;8.210;2023-05-19T07:26:07;6.30;;;2.30;;
19605;SDS011;9950;50.168;8.210;2023-05-19T07:28:36;4.50;;;1.95;;
19605;SDS011;9950;50.168;8.210;2023-05-19T07:31:03;5.28;;;2.22;;
19605;SDS011;9950;50.168;8.210;2023-05-19T07:33:31;5.95;;;2.40;;
19605;SDS011;9950;50.168;8.210;2023-05-19T07:35:58;3.45;;;1.77;;
19605;SDS011;9950;50.168;8.210;2023-05-19T07:38:25;6.47;;;2.45;;
19605;SDS011;9950;50.168;8.210;2023-05-19T07:40:52;7.13;;;2.33;;
19605;SDS011;9950;50.168;8.210;2023-05-19T07:43:20;3.75;;;1.95;;
19605;SDS011;9950;50.168;8.210;2023-05-19T07:45:48;3.70;;;1.90;;
19605;SDS011;9950;50.168;8.210;2023-05-19T07:48:17;9.00;;;1.88;;
19605;SDS011;9950;50.168;8.210;2023-05-19T07:50:47;6.00;;;2.13;;
19605;SDS011;9950;50.168;8.210;2023-05-19T07:53:15;3.67;;;1.88;;
19605;SDS011;9950;50.168;8.210;2023-05-19T07:55:42;3.97;;;2.03;;
19605;SDS011;9950;50.168;8.210;2023-05-19T07:58:09;7.13;;;2.13;;
19605;SDS011;9950;50.168;8.210;2023-05-19T08:00:36;6.25;;;1.73;;
19605;SDS011;9950;50.168;8.210;2023-05-19T08:03:06;4.78;;;2.13;;
19605;SDS011;9950;50.168;8.210;2023-05-19T08:05:33;5.18;;;2.25;;
19605;SDS011;9950;50.168;8.210;2023-05-19T08:08:01;5.28;;;2.25;;
19605;SDS011;9950;50.168;8.210;2023-05-19T08:10:28;4.35;;;2.35;;
19605;SDS011;9950;50.168;8.210;2023-05-19T08:12:55;5.30;;;2.08;;
19605;SDS011;9950;50.168;8.210;2023-05-19T08:15:22;5.80;;;1.95;;
19605;SDS011;9950;50.168;8.210;2023-05-19T08:17:50;8.10;;;2.28;;
19605;SDS011;9950;50.168;8.210;2023-05-19T08:20:18;4.70;;;1.92;;
19605;SDS011;9950;50.168;8.210;2023-05-19T08:22:46;5.50;;;2.10;;
19605;SDS011;9950;50.168;8.210;2023-05-19T08:25:14;6.97;;;2.53;;
19605;SDS011;9950;50.168;8.210;2023-05-19T08:27:41;7.57;;;2.50;;
19605;SDS011;9950;50.168;8.210;2023-05-19T08:30:08;8.63;;;2.85;;
19605;SDS011;9950;50.168;8.210;2023-05-19T08:32:36;4.63;;;2.28;;
19605;SDS011;9950;50.168;8.210;2023-05-19T08:35:03;8.02;;;2.10;;
19605;SDS011;9950;50.168;8.210;2023-05-19T08:37:33;6.90;;;1.90;;
19605;SDS011;9950;50.168;8.210;2023-05-19T08:40:02;5.32;;;1.90;;
19605;SDS011;9950;50.168;8.210;2023-05-19T08:42:30;5.43;;;2.03;;
19605;SDS011;9950;50.168;8.210;2023-05-19T08:44:58;5.75;;;1.90;;
19605;SDS011;9950;50.168;8.210;2023-05-19T08:47:25;6.78;;;2.13;;
19605;SDS011;9950;50.168;8.210;2023-05-19T08:49:53;5.03;;;1.65;;
19605;SDS011;9950;50.168;8.210;2023-05-19T08:52:24;3.55;;;1.83;;
19605;SDS011;9950;50.168;8.210;2023-05-19T08:54:57;7.18;;;2.20;;
19605;SDS011;9950;50.168;8.210;2023-05-19T08:57:26;6.82;;;2.03;;
19605;SDS011;9950;50.168;8.210;2023-05-19T08:59:54;5.35;;;1.80;;
19605;SDS011;9950;50.168;8.210;2023-05-19T09:02:21;5.35;;;1.90;;
19605;SDS011;9950;50.168;8.210;2023-05-19T09:04:49;8.00;;;2.30;;
19605;SDS011;9950;50.168;8.210;2023-05-19T09:07:16;3.92;;;1.75;;
19605;SDS011;9950;50.168;8.210;2023-05-19T09:09:45;4.30;;;1.85;;
19605;SDS011;9950;50.168;8.210;2023-05-19T09:12:13;3.25;;;1.60;;
19605;SDS011;9950;50.168;8.210;2023-05-19T09:14:41;4.07;;;1.70;;
19605;SDS011;9950;50.168;8.210;2023-05-19T09:17:08;6.47;;;2.17;;
19605;SDS011;9950;50.168;8.210;2023-05-19T09:19:36;6.15;;;1.85;;
19605;SDS011;9950;50.168;8.210;2023-05-19T09:22:08;7.20;;;1.80;;
19605;SDS011;9950;50.168;8.210;2023-05-19T09:24:35;3.00;;;1.50;;
19605;SDS011;9950;50.168;8.210;2023-05-19T09:27:04;6.05;;;2.10;;
19605;SDS011;9950;50.168;8.210;2023-05-19T09:29:32;5.18;;;1.70;;
19605;SDS011;9950;50.168;8.210;2023-05-19T09:32:00;7.70;;;2.42;;
19605;SDS011;9950;50.168;8.210;2023-05-19T09:34:29;7.20;;;2.22;;
19605;SDS011;9950;50.168;8.210;2023-05-19T09:36:56;8.80;;;2.45;;
19605;SDS011;9950;50.168;8.210;2023-05-19T09:39:23;7.82;;;2.40;;
19605;SDS011;9950;50.168;8.210;2023-05-19T09:41:53;10.45;;;2.53;;
19605;SDS011;9950;50.168;8.210;2023-05-19T09:44:22;10.45;;;1.88;;
19605;SDS011;9950;50.168;8.210;2023-05-19T09:46:54;6.28;;;1.90;;
19605;SDS011;9950;50.168;8.210;2023-05-19T09:49:22;4.80;;;2.17;;
19605;SDS011;9950;50.168;8.210;2023-05-19T09:51:49;8.57;;;1.67;;
19605;SDS011;9950;50.168;8.210;2023-05-19T09:54:17;5.18;;;1.60;;
19605;SDS011;9950;50.168;8.210;2023-05-19T09:56:49;5.05;;;1.65;;
19605;SDS011;9950;50.168;8.210;2023-05-19T09:59:18;14.13;;;6.90;;
19605;SDS011;9950;50.168;8.210;2023-05-19T10:01:46;3.72;;;1.63;;
19605;SDS011;9950;50.168;8.210;2023-05-19T10:04:15;5.55;;;1.83;;
19605;SDS011;9950;50.168;8.210;2023-05-19T10:06:43;6.78;;;2.22;;
19605;SDS011;9950;50.168;8.210;2023-05-19T10:09:10;7.53;;;2.58;;
19605;SDS011;9950;50.168;8.210;2023-05-19T10:11:37;4.22;;;1.77;;
19605;SDS011;9950;50.168;8.210;2023-05-19T10:14:04;6.00;;;2.20;;
19605;SDS011;9950;50.168;8.210;2023-05-19T10:16:33;5.00;;;1.63;;
19605;SDS011;9950;50.168;8.210;2023-05-19T10:19:01;4.25;;;2.38;;
19605;SDS011;9950;50.168;8.210;2023-05-19T10:21:30;5.35;;;1.77;;
19605;SDS011;9950;50.168;8.210;2023-05-19T10:23:57;4.00;;;1.95;;
19605;SDS011;9950;50.168;8.210;2023-05-19T10:26:24;4.38;;;1.83;;
19605;SDS011;9950;50.168;8.210;2023-05-19T10:28:52;4.15;;;1.90;;
19605;SDS011;9950;50.168;8.210;2023-05-19T10:31:20;5.10;;;1.90;;
19605;SDS011;9950;50.168;8.210;2023-05-19T10:33:54;7.93;;;1.88;;
19605;SDS011;9950;50.168;8.210;2023-05-19T10:36:27;3.30;;;1.65;;
19605;SDS011;9950;50.168;8.210;2023-05-19T10:39:03;13.80;;;2.10;;
19605;SDS011;9950;50.168;8.210;2023-05-19T10:41:32;3.78;;;1.70;;
19605;SDS011;9950;50.168;8.210;2023-05-19T10:44:03;3.90;;;1.73;;
19605;SDS011;9950;50.168;8.210;2023-05-19T10:46:31;3.55;;;1.48;;
19605;SDS011;9950;50.168;8.210;2023-05-19T10:48:58;3.72;;;2.05;;
19605;SDS011;9950;50.168;8.210;2023-05-19T10:51:29;7.18;;;2.22;;
19605;SDS011;9950;50.168;8.210;2023-05-19T10:53:56;4.10;;;1.80;;
19605;SDS011;9950;50.168;8.210;2023-05-19T10:56:28;3.80;;;1.70;;
19605;SDS011;9950;50.168;8.210;2023-05-19T10:58:58;2.03;;;1.40;;
19605;SDS011;9950;50.168;8.210;2023-05-19T11:01:29;5.38;;;1.60;;
19605;SDS011;9950;50.168;8.210;2023-05-19T11:04:01;5.13;;;1.55;;
19605;SDS011;9950;50.168;8.210;2023-05-19T11:06:30;4.78;;;2.08;;
19605;SDS011;9950;50.168;8.210;2023-05-19T11:08:58;3.28;;;1.55;;
19605;SDS011;9950;50.168;8.210;2023-05-19T11:11:26;3.42;;;1.42;;
19605;SDS011;9950;50.168;8.210;2023-05-19T11:14:09;3.67;;;1.70;;
19605;SDS011;9950;50.168;8.210;2023-05-19T11:16:38;3.45;;;1.50;;
19605;SDS011;9950;50.168;8.210;2023-05-19T11:19:07;3.58;;;1.70;;
19605;SDS011;9950;50.168;8.210;2023-05-19T11:21:41;4.38;;;2.40;;
19605;SDS011;9950;50.168;8.210;2023-05-19T11:24:08;5.50;;;1.80;;
19605;SDS011;9950;50.168;8.210;2023-05-19T11:26:39;3.40;;;1.60;;
19605;SDS011;9950;50.168;8.210;2023-05-19T11:29:07;6.18;;;2.15;;
19605;SDS011;9950;50.168;8.210;2023-05-19T11:31:36;5.88;;;1.80;;
19605;SDS011;9950;50.168;8.210;2023-05-19T11:34:03;2.00;;;1.35;;
19605;SDS011;9950;50.168;8.210;2023-05-19T11:36:31;4.15;;;1.63;;
19605;SDS011;9950;50.168;8.210;2023-05-19T11:39:00;3.33;;;1.50;;
19605;SDS011;9950;50.168;8.210;2023-05-19T11:41:27;4.72;;;2.10;;
19605;SDS011;9950;50.168;8.210;2023-05-19T11:43:55;5.00;;;1.90;;
19605;SDS011;9950;50.168;8.210;2023-05-19T11:46:22;7.97;;;1.80;;
19605;SDS011;9950;50.168;8.210;2023-05-19T11:48:51;3.50;;;1.60;;
19605;SDS011;9950;50.168;8.210;2023-05-19T11:51:20;3.22;;;1.67;;
19605;SDS011;9950;50.168;8.210;2023-05-19T11:53:48;5.45;;;1.80;;
19605;SDS011;9950;50.168;8.210;2023-05-19T11:56:18;6.32;;;1.80;;
19605;SDS011;9950;50.168;8.210;2023-05-19T11:58:46;4.10;;;1.73;;
19605;SDS011;9950;50.168;8.210;2023-05-19T12:01:13;3.95;;;1.80;;
19605;SDS011;9950;50.168;8.210;2023-05-19T12:03:41;4.60;;;1.85;;
19605;SDS011;9950;50.168;8.210;2023-05-19T12:06:09;3.08;;;1.75;;
19605;SDS011;9950;50.168;8.210;2023-05-19T12:08:41;4.00;;;1.75;;
19605;SDS011;9950;50.168;8.210;2023-05-19T12:11:08;4.55;;;2.55;;
19605;SDS011;9950;50.168;8.210;2023-05-19T12:13:36;4.28;;;1.95;;
19605;SDS011;9950;50.168;8.210;2023-05-19T12:16:03;4.00;;;1.70;;
19605;SDS011;9950;50.168;8.210;2023-05-19T12:18:35;3.75;;;1.67;;
19605;SDS011;9950;50.168;8.210;2023-05-19T12:21:02;3.15;;;1.80;;
19605;SDS011;9950;50.168;8.210;2023-05-19T12:23:31;3.83;;;1.80;;
19605;SDS011;9950;50.168;8.210;2023-05-19T12:25:59;4.32;;;1.73;;
19605;SDS011;9950;50.168;8.210;2023-05-19T12:28:28;3.30;;;1.58;;
19605;SDS011;9950;50.168;8.210;2023-05-19T12:30:56;4.22;;;1.70;;
19605;SDS011;9950;50.168;8.210;2023-05-19T12:33:23;3.92;;;1.88;;
19605;SDS011;9950;50.168;8.210;2023-05-19T12:35:50;4.15;;;1.95;;
19605;SDS011;9950;50.168;8.210;2023-05-19T12:38:18;3.45;;;1.80;;
19605;SDS011;9950;50.168;8.210;2023-05-19T12:40:48;4.40;;;1.98;;
19605;SDS011;9950;50.168;8.210;2023-05-19T12:43:18;3.88;;;1.70;;
19605;SDS011;9950;50.168;8.210;2023-05-19T12:45:46;4.38;;;2.08;;
19605;SDS011;9950;50.168;8.210;2023-05-19T12:48:13;3.30;;;1.50;;
19605;SDS011;9950;50.168;8.210;2023-05-19T12:50:41;3.60;;;1.75;;
19605;SDS011;9950;50.168;8.210;2023-05-19T12:53:09;3.47;;;1.77;;
19605;SDS011;9950;50.168;8.210;2023-05-19T12:55:38;4.82;;;1.40;;
19605;SDS011;9950;50.168;8.210;2023-05-19T12:58:09;4.93;;;2.03;;
19605;SDS011;9950;50.168;8.210;2023-05-19T13:00:40;3.25;;;1.52;;
19605;SDS011;9950;50.168;8.210;2023-05-19T13:03:08;3.22;;;1.73;;
19605;SDS011;9950;50.168;8.210;2023-05-19T13:05:41;2.67;;;1.67;;
19605;SDS011;9950;50.168;8.210;2023-05-19T13:08:08;4.70;;;1.67;;
19605;SDS011;9950;50.168;8.210;2023-05-19T13:10:39;4.38;;;1.63;;
19605;SDS011;9950;50.168;8.210;2023-05-19T13:13:07;5.28;;;2.15;;
19605;SDS011;9950;50.168;8.210;2023-05-19T13:15:36;3.20;;;1.88;;
19605;SDS011;9950;50.168;8.210;2023-05-19T13:18:04;4.70;;;1.85;;
19605;SDS011;9950;50.168;8.210;2023-05-19T13:20:31;6.97;;;2.45;;
19605;SDS011;9950;50.168;8.210;2023-05-19T13:22:58;4.78;;;1.75;;
19605;SDS011;9950;50.168;8.210;2023-05-19T13:25:26;6.43;;;2.05;;
19605;SDS011;9950;50.168;8.210;2023-05-19T13:27:53;4.53;;;1.75;;
19605;SDS011;9950;50.168;8.210;2023-05-19T13:30:20;4.85;;;2.05;;
19605;SDS011;9950;50.168;8.210;2023-05-19T13:32:49;4.95;;;2.08;;
19605;SDS011;9950;50.168;8.210;2023-05-19T13:35:17;4.00;;;1.80;;
19605;SDS011;9950;50.168;8.210;2023-05-19T13:37:44;4.57;;;1.92;;
19605;SDS011;9950;50.168;8.210;2023-05-19T13:40:13;3.35;;;1.80;;
19605;SDS011;9950;50.168;8.210;2023-05-19T13:42:41;4.60;;;1.85;;
19605;SDS011;9950;50.168;8.210;2023-05-19T13:45:09;4.63;;;1.77;;
19605;SDS011;9950;50.168;8.210;2023-05-19T13:47:36;4.47;;;2.28;;
19605;SDS011;9950;50.168;8.210;2023-05-19T13:50:05;4.55;;;1.90;;
19605;SDS011;9950;50.168;8.210;2023-05-19T13:52:32;4.07;;;1.98;;
19605;SDS011;9950;50.168;8.210;2023-05-19T13:54:59;4.55;;;2.00;;
19605;SDS011;9950;50.168;8.210;2023-05-19T13:57:27;5.65;;;1.90;;
19605;SDS011;9950;50.168;8.210;2023-05-19T13:59:54;3.67;;;1.73;;
19605;SDS011;9950;50.168;8.210;2023-05-19T14:02:22;3.28;;;1.80;;
19605;SDS011;9950;50.168;8.210;2023-05-19T14:04:49;4.35;;;2.08;;
19605;SDS011;9950;50.168;8.210;2023-05-19T14:07:18;3.80;;;2.08;;
19605;SDS011;9950;50.168;8.210;2023-05-19T14:09:45;2.33;;;1.63;;
19605;SDS011;9950;50.168;8.210;2023-05-19T14:12:12;4.38;;;1.80;;
19605;SDS011;9950;50.168;8.210;2023-05-19T14:14:39;3.97;;;2.03;;
19605;SDS011;9950;50.168;8.210;2023-05-19T14:17:06;5.20;;;1.90;;
19605;SDS011;9950;50.168;8.210;2023-05-19T14:19:33;3.67;;;1.85;;
19605;SDS011;9950;50.168;8.210;2023-05-19T14:22:01;3.75;;;2.15;;
19605;SDS011;9950;50.168;8.210;2023-05-19T14:24:29;6.85;;;1.90;;
19605;SDS011;9950;50.168;8.210;2023-05-19T14:26:56;3.95;;;1.90;;
19605;SDS011;9950;50.168;8.210;2023-05-19T14:29:23;5.13;;;2.22;;
19605;SDS011;9950;50.168;8.210;2023-05-19T14:31:50;6.43;;;1.98;;
19605;SDS011;9950;50.168;8.210;2023-05-19T14:34:18;3.30;;;1.80;;
19605;SDS011;9950;50.168;8.210;2023-05-19T14:36:45;7.03;;;2.22;;
19605;SDS011;9950;50.168;8.210;2023-05-19T14:39:12;8.10;;;2.42;;
19605;SDS011;9950;50.168;8.210;2023-05-19T14:41:41;4.40;;;1.65;;
19605;SDS011;9950;50.168;8.210;2023-05-19T14:44:08;4.25;;;1.80;;
19605;SDS011;9950;50.168;8.210;2023-05-19T14:46:35;3.85;;;2.08;;
19605;SDS011;9950;50.168;8.210;2023-05-19T14:49:02;3.58;;;1.80;;
19605;SDS011;9950;50.168;8.210;2023-05-19T14:51:30;3.63;;;2.10;;
19605;SDS011;9950;50.168;8.210;2023-05-19T14:53:57;4.65;;;1.90;;
19605;SDS011;9950;50.168;8.210;2023-05-19T14:56:26;4.00;;;2.28;;
19605;SDS011;9950;50.168;8.210;2023-05-19T14:58:54;7.53;;;2.40;;
19605;SDS011;9950;50.168;8.210;2023-05-19T15:01:21;5.97;;;2.13;;
19605;SDS011;9950;50.168;8.210;2023-05-19T15:03:49;4.05;;;2.28;;
19605;SDS011;9950;50.168;8.210;2023-05-19T15:06:16;5.15;;;2.22;;
19605;SDS011;9950;50.168;8.210;2023-05-19T15:08:43;3.55;;;2.17;;